createdAt,value
2023-02-27T00:03:04.810Z,101346.34
2023-02-27T00:08:09.721Z,101344.72
2023-02-27T00:13:12.927Z,101334.47
2023-02-27T00:18:16.327Z,101350.81
2023-02-27T00:23:20.844Z,101355.22
2023-02-27T00:28:24.438Z,101353.56
2023-02-27T00:33:27.594Z,101355.31
2023-02-27T00:38:32.199Z,101367.34
2023-02-27T00:43:35.691Z,101365.66
2023-02-27T00:48:38.899Z,101362.28
2023-02-27T00:53:43.445Z,101363.19
2023-02-27T00:58:46.504Z,101354.69
2023-02-27T01:03:49.655Z,101347.13
2023-02-27T01:08:56.232Z,101353.19
2023-02-27T01:13:59.318Z,101349.81
2023-02-27T01:19:02.494Z,101353.28
2023-02-27T01:24:07.418Z,101353.31
2023-02-27T01:29:10.711Z,101352.44
2023-02-27T01:34:13.942Z,101349.63
2023-02-27T01:39:19.097Z,101353.78
2023-02-27T01:44:22.513Z,101347.59
2023-02-27T01:49:28.705Z,101350.63
2023-02-27T01:54:36.780Z,101354.56
2023-02-27T01:59:43.812Z,101353.47
2023-02-27T02:04:50.199Z,101351.59
2023-02-27T02:09:57.858Z,101357.34
2023-02-27T02:15:01.340Z,101366.59
2023-02-27T02:20:36.586Z,101360.34
2023-02-27T02:26:14.258Z,101353.31
2023-02-27T02:31:42.199Z,101346.41
2023-02-27T02:37:31.069Z,101346.97
2023-02-27T02:42:42.878Z,101337.53
2023-02-27T02:48:02.765Z,101350.19
2023-02-27T02:53:12.797Z,101353.41
2023-02-27T02:58:23.766Z,101360.19
2023-02-27T03:03:30.817Z,101354.84
2023-02-27T03:08:38.062Z,101359.00
2023-02-27T03:13:49.710Z,101353.75
2023-02-27T03:20:03.941Z,101358.84
2023-02-27T03:25:12.788Z,101361.31
2023-02-27T03:30:24.882Z,101364.66
2023-02-27T03:35:38.619Z,101362.88
2023-02-27T03:40:51.600Z,101373.03
2023-02-27T03:46:02.632Z,101370.44
2023-02-27T03:51:08.695Z,101378.25
2023-02-27T03:56:15.401Z,101379.94
2023-02-27T04:01:20.399Z,101390.13
2023-02-27T04:06:42.216Z,101397.03
2023-02-27T04:12:02.524Z,101402.09
2023-02-27T04:17:26.304Z,101408.84
2023-02-27T04:22:37.441Z,101412.19
2023-02-27T04:27:50.523Z,101411.97
2023-02-27T04:32:59.945Z,101414.44
2023-02-27T04:38:09.542Z,101412.59
2023-02-27T04:43:15.823Z,101428.03
2023-02-27T04:48:25.343Z,101431.31
2023-02-27T04:53:33.774Z,101421.78
2023-02-27T04:58:40.757Z,101429.50
2023-02-27T05:03:51.413Z,101427.72
2023-02-27T05:09:04.722Z,101425.03
2023-02-27T05:14:17.505Z,101434.41
2023-02-27T05:19:22.624Z,101436.13
2023-02-27T05:24:34.560Z,101432.25
2023-02-27T05:29:47.044Z,101431.03
2023-02-27T05:34:56.115Z,101437.31
2023-02-27T05:40:06.188Z,101451.34
2023-02-27T05:45:13.286Z,101461.06
2023-02-27T05:50:22.576Z,101462.00
2023-02-27T05:55:29.911Z,101460.41
2023-02-27T06:00:36.881Z,101458.72
2023-02-27T06:05:44.680Z,101461.22
2023-02-27T06:10:52.632Z,101466.44
2023-02-27T06:15:55.964Z,101467.34
2023-02-27T06:21:02.821Z,101480.09
2023-02-27T06:26:06.835Z,101484.25
2023-02-27T06:31:10.262Z,101482.47
2023-02-27T06:36:15.128Z,101482.28
2023-02-27T06:41:18.202Z,101493.16
2023-02-27T06:46:23.915Z,101504.94
2023-02-27T06:51:28.797Z,101509.13
2023-02-27T06:56:31.978Z,101508.94
2023-02-27T07:01:38.321Z,101511.50
2023-02-27T07:07:34.897Z,101519.03
2023-02-27T07:12:11.234Z,101511.06
2023-02-27T07:17:14.573Z,101507.28
2023-02-27T07:22:23.589Z,101505.88
2023-02-27T07:27:26.777Z,101505.50
2023-02-27T07:32:30.017Z,101508.50
2023-02-27T07:37:34.510Z,101513.72
2023-02-27T07:42:37.801Z,101504.25
2023-02-27T07:47:40.972Z,101503.03
2023-02-27T07:52:45.896Z,101501.59
2023-02-27T07:57:48.950Z,101502.59
2023-02-27T08:02:52.368Z,101508.88
2023-02-27T08:07:57.005Z,101493.16
2023-02-27T08:13:00.126Z,101505.25
2023-02-27T08:18:03.714Z,101511.59
2023-02-27T08:23:09.705Z,101522.88
2023-02-27T08:28:12.897Z,101533.16
2023-02-27T08:33:16.060Z,101533.34
2023-02-27T08:38:20.991Z,101519.63
2023-02-27T08:43:24.516Z,101536.72
2023-02-27T08:48:27.703Z,101541.72
2023-02-27T08:53:32.335Z,101556.47
2023-02-27T08:58:35.999Z,101550.84
2023-02-27T09:03:39.312Z,101548.88
2023-02-27T09:08:43.836Z,101547.88
2023-02-27T09:13:46.981Z,101549.44
2023-02-27T09:18:52.817Z,101557.09
2023-02-27T09:24:02.607Z,101551.75
2023-02-27T09:29:10.527Z,101561.91
2023-02-27T09:34:13.665Z,101556.13
2023-02-27T09:39:18.486Z,101556.59
2023-02-27T09:44:45.757Z,101559.41
2023-02-27T09:49:59.212Z,101559.16
2023-02-27T09:55:06.049Z,101568.19
2023-02-27T10:00:21.412Z,101569.69
2023-02-27T10:05:36.980Z,101568.38
2023-02-27T10:10:49.525Z,101571.69
2023-02-27T10:15:54.209Z,101571.69
2023-02-27T10:21:00.352Z,101576.59
2023-02-27T10:26:06.270Z,101572.41
2023-02-27T10:31:18.187Z,101575.06
2023-02-27T10:36:33.099Z,101563.56
2023-02-27T10:41:40.079Z,101574.09
2023-02-27T10:46:43.819Z,101573.81
2023-02-27T10:51:48.110Z,101582.50
2023-02-27T10:56:56.756Z,101575.78
2023-02-27T11:02:02.269Z,101581.22
2023-02-27T11:07:09.272Z,101581.84
2023-02-27T11:12:25.557Z,101569.00
2023-02-27T11:17:32.381Z,101567.47
2023-02-27T11:22:35.654Z,101559.41
2023-02-27T11:27:40.127Z,101559.19
2023-02-27T11:32:45.863Z,101551.13
2023-02-27T11:37:50.875Z,101554.44
2023-02-27T11:42:58.596Z,101548.63
2023-02-27T11:48:09.362Z,101547.22
2023-02-27T11:53:32.339Z,101545.59
2023-02-27T11:58:45.788Z,101533.66
2023-02-27T12:03:54.756Z,101527.28
2023-02-27T12:09:05.001Z,101535.56
2023-02-27T12:14:16.969Z,101529.66
2023-02-27T12:19:26.509Z,101531.44
2023-02-27T12:24:38.607Z,101526.53
2023-02-27T12:29:49.497Z,101526.22
2023-02-27T12:34:55.873Z,101521.72
2023-02-27T12:40:02.354Z,101524.03
2023-02-27T12:45:38.484Z,101524.56
2023-02-27T12:50:50.910Z,101525.16
2023-02-27T12:56:02.361Z,101524.56
2023-02-27T13:01:15.727Z,101525.38
2023-02-27T13:06:28.243Z,101526.19
2023-02-27T13:11:51.859Z,101527.47
2023-02-27T13:17:01.731Z,101517.75
2023-02-27T13:22:16.028Z,101520.91
2023-02-27T13:27:25.314Z,101515.00
2023-02-27T13:32:43.962Z,101516.13
2023-02-27T13:37:55.516Z,101514.28
2023-02-27T13:43:02.014Z,101522.09
2023-02-27T13:48:43.786Z,101510.69
2023-02-27T13:53:47.119Z,101517.31
2023-02-27T13:58:51.479Z,101507.63
2023-02-27T14:04:00.526Z,101505.38
2023-02-27T14:09:14.422Z,101500.53
2023-02-27T14:14:37.328Z,101510.38
2023-02-27T14:19:57.203Z,101516.19
2023-02-27T14:25:06.586Z,101518.00
2023-02-27T14:30:26.340Z,101521.81
2023-02-27T14:35:31.778Z,101522.84
2023-02-27T14:40:40.786Z,101527.84
2023-02-27T14:45:44.396Z,101552.38
2023-02-27T14:50:55.009Z,101570.06
2023-02-27T14:55:59.640Z,101575.84
2023-02-27T15:01:09.299Z,101572.47
2023-02-27T15:06:20.269Z,101557.66
2023-02-27T15:11:25.064Z,101562.63
2023-02-27T15:16:37.598Z,101555.75
2023-02-27T15:21:44.932Z,101561.16
2023-02-27T15:26:52.357Z,101557.59
2023-02-27T15:31:56.121Z,101563.00
2023-02-27T15:37:02.214Z,101567.25
2023-02-27T15:42:07.027Z,101569.06
2023-02-27T15:47:13.673Z,101583.63
2023-02-27T15:52:21.934Z,101573.03
2023-02-27T15:57:25.258Z,101583.59
2023-02-27T16:02:31.913Z,101587.56
2023-02-27T16:07:43.003Z,101589.69
2023-02-27T16:12:46.728Z,101597.66
2023-02-27T16:18:01.852Z,101598.72
2023-02-27T16:23:08.795Z,101605.31
2023-02-27T16:28:14.757Z,101613.25
2023-02-27T16:33:24.695Z,101614.41
2023-02-27T16:38:29.580Z,101627.53
2023-02-27T16:43:33.670Z,101621.84
2023-02-27T16:48:37.412Z,101636.59
2023-02-27T16:53:42.227Z,101631.41
2023-02-27T16:58:45.878Z,101639.34
2023-02-27T17:03:49.153Z,101654.50
2023-02-27T17:08:53.847Z,101652.19
2023-02-27T17:13:57.091Z,101662.69
2023-02-27T17:19:00.785Z,101654.91
2023-02-27T17:24:06.306Z,101664.63
2023-02-27T17:29:09.892Z,101677.00
2023-02-27T17:34:13.042Z,101678.78
2023-02-27T17:39:18.195Z,101672.78
2023-02-27T17:44:21.466Z,101672.50
2023-02-27T17:49:24.744Z,101672.41
2023-02-27T17:54:29.668Z,101679.53
2023-02-27T17:59:32.936Z,101683.53
2023-02-27T18:04:36.046Z,101690.75
2023-02-27T18:09:40.674Z,101683.34
2023-02-27T18:14:43.717Z,101690.44
2023-02-27T18:19:47.993Z,101692.38
2023-02-27T18:24:53.841Z,101686.66
2023-02-27T18:29:58.289Z,101697.25
2023-02-27T18:35:02.128Z,101693.88
2023-02-27T18:40:07.929Z,101688.09
2023-02-27T18:45:12.171Z,101694.22
2023-02-27T18:50:15.921Z,101702.91
2023-02-27T18:55:21.240Z,101704.47
2023-02-27T19:00:24.961Z,101707.97
2023-02-27T19:05:28.161Z,101703.47
2023-02-27T19:10:34.950Z,101698.38
2023-02-27T19:15:38.568Z,101707.75
2023-02-27T19:20:41.967Z,101708.06
2023-02-27T19:25:48.969Z,101700.50
2023-02-27T19:30:52.171Z,101709.28
2023-02-27T19:35:55.484Z,101700.19
2023-02-27T19:41:03.586Z,101705.56
2023-02-27T19:46:07.579Z,101703.16
2023-02-27T19:51:14.133Z,101705.03
2023-02-27T19:56:21.215Z,101711.88
2023-02-27T20:01:34.018Z,101710.28
2023-02-27T20:06:44.061Z,101712.22
2023-02-27T20:11:50.324Z,101713.91
2023-02-27T20:16:54.288Z,101712.22
2023-02-27T20:21:59.037Z,101715.63
2023-02-27T20:27:04.877Z,101715.69
2023-02-27T20:32:08.570Z,101708.72
2023-02-27T20:37:11.966Z,101705.97
2023-02-27T20:42:16.728Z,101707.59
2023-02-27T20:47:19.908Z,101703.22
2023-02-27T20:52:23.294Z,101707.59
2023-02-27T20:57:27.993Z,101706.75
2023-02-27T21:02:31.227Z,101711.19
2023-02-27T21:07:34.612Z,101708.59
2023-02-27T21:12:39.158Z,101704.28
2023-02-27T21:17:42.812Z,101708.41
2023-02-27T21:22:46.276Z,101712.56
2023-02-27T21:27:50.938Z,101709.88
2023-02-27T21:32:54.186Z,101715.91
2023-02-27T21:37:57.359Z,101702.13
2023-02-27T21:43:01.880Z,101709.78
2023-02-27T21:48:05.328Z,101715.03
2023-02-27T21:53:08.607Z,101715.81
2023-02-27T21:58:13.208Z,101714.91
2023-02-27T22:03:16.413Z,101719.22
2023-02-27T22:08:19.697Z,101714.84
2023-02-27T22:13:24.174Z,101716.50
2023-02-27T22:18:28.539Z,101717.38
2023-02-27T22:23:31.637Z,101729.38
2023-02-27T22:28:39.121Z,101723.25
2023-02-27T22:33:44.058Z,101713.69
2023-02-27T22:38:48.300Z,101727.53
2023-02-27T22:43:54.925Z,101724.16
2023-02-27T22:48:58.948Z,101727.69
2023-02-27T22:54:03.972Z,101732.78
2023-02-27T22:59:08.845Z,101732.63
2023-02-27T23:04:12.437Z,101730.00
2023-02-27T23:09:17.473Z,101735.34
2023-02-27T23:14:23.185Z,101737.84
2023-02-27T23:19:26.384Z,101743.03
2023-02-27T23:24:29.630Z,101744.94
2023-02-27T23:29:34.422Z,101751.78
2023-02-27T23:34:49.001Z,101752.63
2023-02-27T23:39:52.819Z,101756.13
2023-02-27T23:44:57.629Z,101763.94
2023-02-27T23:50:00.920Z,101765.56
2023-02-27T23:55:04.694Z,101755.25
